sensor_id;sensor_type;location;lat;lon;timestamp;P1;durP1;ratioP1;P2;durP2;ratioP2
24650;SDS011;12783;48.824;8.662;2023-04-01T00:02:23;4.53;;;0.98;;
24650;SDS011;12783;48.824;8.662;2023-04-01T00:04:50;11.13;;;1.05;;
24650;SDS011;12783;48.824;8.662;2023-04-01T00:07:16;5.53;;;1.23;;
24650;SDS011;12783;48.824;8.662;2023-04-01T00:09:43;3.75;;;1.02;;
24650;SDS011;12783;48.824;8.662;2023-04-01T00:12:10;8.38;;;0.90;;
24650;SDS011;12783;48.824;8.662;2023-04-01T00:14:37;4.47;;;0.95;;
24650;SDS011;12783;48.824;8.662;2023-04-01T00:17:06;6.40;;;1.23;;
24650;SDS011;12783;48.824;8.662;2023-04-01T00:19:33;7.25;;;1.02;;
24650;SDS011;12783;48.824;8.662;2023-04-01T00:21:59;3.20;;;0.80;;
24650;SDS011;12783;48.824;8.662;2023-04-01T00:24:26;5.53;;;0.98;;
24650;SDS011;12783;48.824;8.662;2023-04-01T00:26:53;3.40;;;0.80;;
24650;SDS011;12783;48.824;8.662;2023-04-01T00:29:21;3.50;;;0.80;;
24650;SDS011;12783;48.824;8.662;2023-04-01T00:31:50;5.20;;;0.80;;
24650;SDS011;12783;48.824;8.662;2023-04-01T00:34:17;2.90;;;0.60;;
24650;SDS011;12783;48.824;8.662;2023-04-01T00:36:44;5.68;;;1.10;;
24650;SDS011;12783;48.824;8.662;2023-04-01T00:39:11;6.57;;;0.70;;
24650;SDS011;12783;48.824;8.662;2023-04-01T00:41:37;4.15;;;0.52;;
24650;SDS011;12783;48.824;8.662;2023-04-01T00:44:14;4.72;;;0.77;;
24650;SDS011;12783;48.824;8.662;2023-04-01T00:46:45;3.15;;;0.95;;
24650;SDS011;12783;48.824;8.662;2023-04-01T00:49:13;2.53;;;0.68;;
24650;SDS011;12783;48.824;8.662;2023-04-01T00:51:41;1.42;;;0.65;;
24650;SDS011;12783;48.824;8.662;2023-04-01T00:54:08;3.90;;;0.77;;
24650;SDS011;12783;48.824;8.662;2023-04-01T00:56:46;2.00;;;0.60;;
24650;SDS011;12783;48.824;8.662;2023-04-01T00:59:18;4.32;;;0.70;;
24650;SDS011;12783;48.824;8.662;2023-04-01T01:01:49;3.97;;;0.95;;
24650;SDS011;12783;48.824;8.662;2023-04-01T01:04:24;8.13;;;1.15;;
24650;SDS011;12783;48.824;8.662;2023-04-01T01:09:51;3.50;;;0.70;;
24650;SDS011;12783;48.824;8.662;2023-04-01T01:12:20;2.38;;;0.77;;
24650;SDS011;12783;48.824;8.662;2023-04-01T01:17:26;2.13;;;0.55;;
24650;SDS011;12783;48.824;8.662;2023-04-01T01:23:14;4.40;;;0.77;;
24650;SDS011;12783;48.824;8.662;2023-04-01T01:29:02;5.28;;;0.90;;
24650;SDS011;12783;48.824;8.662;2023-04-01T01:31:44;3.08;;;0.80;;
24650;SDS011;12783;48.824;8.662;2023-04-01T01:34:15;2.10;;;0.45;;
24650;SDS011;12783;48.824;8.662;2023-04-01T01:36:48;1.08;;;0.40;;
24650;SDS011;12783;48.824;8.662;2023-04-01T01:39:20;2.10;;;0.80;;
24650;SDS011;12783;48.824;8.662;2023-04-01T01:41:48;4.88;;;0.60;;
24650;SDS011;12783;48.824;8.662;2023-04-01T01:44:15;2.65;;;0.50;;
24650;SDS011;12783;48.824;8.662;2023-04-01T01:46:42;4.00;;;0.73;;
24650;SDS011;12783;48.824;8.662;2023-04-01T01:49:11;4.95;;;0.73;;
24650;SDS011;12783;48.824;8.662;2023-04-01T01:51:39;3.25;;;0.68;;
24650;SDS011;12783;48.824;8.662;2023-04-01T01:54:06;2.35;;;0.57;;
24650;SDS011;12783;48.824;8.662;2023-04-01T01:56:33;2.42;;;0.75;;
24650;SDS011;12783;48.824;8.662;2023-04-01T01:59:03;3.95;;;0.95;;
24650;SDS011;12783;48.824;8.662;2023-04-01T02:01:32;4.35;;;0.85;;
24650;SDS011;12783;48.824;8.662;2023-04-01T02:04:01;1.23;;;0.57;;
24650;SDS011;12783;48.824;8.662;2023-04-01T02:06:30;4.70;;;1.27;;
24650;SDS011;12783;48.824;8.662;2023-04-01T02:09:02;3.42;;;0.80;;
24650;SDS011;12783;48.824;8.662;2023-04-01T02:11:35;5.90;;;1.10;;
24650;SDS011;12783;48.824;8.662;2023-04-01T02:14:17;2.78;;;0.60;;
24650;SDS011;12783;48.824;8.662;2023-04-01T02:16:57;5.70;;;0.80;;
24650;SDS011;12783;48.824;8.662;2023-04-01T02:19:27;2.83;;;0.80;;
24650;SDS011;12783;48.824;8.662;2023-04-01T02:21:59;2.60;;;0.50;;
24650;SDS011;12783;48.824;8.662;2023-04-01T02:24:28;2.85;;;0.52;;
24650;SDS011;12783;48.824;8.662;2023-04-01T02:26:57;3.92;;;0.40;;
24650;SDS011;12783;48.824;8.662;2023-04-01T02:29:24;3.35;;;0.60;;
24650;SDS011;12783;48.824;8.662;2023-04-01T02:31:51;1.55;;;0.57;;
24650;SDS011;12783;48.824;8.662;2023-04-01T02:34:20;5.60;;;0.70;;
24650;SDS011;12783;48.824;8.662;2023-04-01T02:36:48;1.88;;;0.73;;
24650;SDS011;12783;48.824;8.662;2023-04-01T02:39:16;5.00;;;0.70;;
24650;SDS011;12783;48.824;8.662;2023-04-01T02:41:44;4.78;;;0.70;;
24650;SDS011;12783;48.824;8.662;2023-04-01T02:44:12;5.05;;;0.70;;
24650;SDS011;12783;48.824;8.662;2023-04-01T02:46:40;3.53;;;0.65;;
24650;SDS011;12783;48.824;8.662;2023-04-01T02:49:07;3.42;;;0.85;;
24650;SDS011;12783;48.824;8.662;2023-04-01T02:51:34;4.03;;;0.80;;
24650;SDS011;12783;48.824;8.662;2023-04-01T02:54:01;5.53;;;0.60;;
24650;SDS011;12783;48.824;8.662;2023-04-01T02:56:27;3.35;;;0.52;;
24650;SDS011;12783;48.824;8.662;2023-04-01T02:58:54;3.78;;;0.73;;
24650;SDS011;12783;48.824;8.662;2023-04-01T03:01:21;1.90;;;0.50;;
24650;SDS011;12783;48.824;8.662;2023-04-01T03:03:49;2.17;;;0.55;;
24650;SDS011;12783;48.824;8.662;2023-04-01T03:06:16;3.17;;;0.63;;
24650;SDS011;12783;48.824;8.662;2023-04-01T03:08:43;4.03;;;0.93;;
24650;SDS011;12783;48.824;8.662;2023-04-01T03:11:10;5.10;;;0.70;;
24650;SDS011;12783;48.824;8.662;2023-04-01T03:13:37;2.97;;;0.77;;
24650;SDS011;12783;48.824;8.662;2023-04-01T03:16:04;2.97;;;0.70;;
24650;SDS011;12783;48.824;8.662;2023-04-01T03:18:31;2.78;;;0.82;;
24650;SDS011;12783;48.824;8.662;2023-04-01T03:21:11;6.13;;;0.85;;
24650;SDS011;12783;48.824;8.662;2023-04-01T03:23:45;2.20;;;0.50;;
24650;SDS011;12783;48.824;8.662;2023-04-01T03:26:12;4.22;;;0.75;;
24650;SDS011;12783;48.824;8.662;2023-04-01T03:28:39;2.97;;;0.60;;
24650;SDS011;12783;48.824;8.662;2023-04-01T03:31:06;4.22;;;0.68;;
24650;SDS011;12783;48.824;8.662;2023-04-01T03:33:33;7.72;;;0.70;;
24650;SDS011;12783;48.824;8.662;2023-04-01T03:36:00;2.03;;;0.60;;
24650;SDS011;12783;48.824;8.662;2023-04-01T03:38:27;3.53;;;0.80;;
24650;SDS011;12783;48.824;8.662;2023-04-01T03:40:53;3.95;;;0.80;;
24650;SDS011;12783;48.824;8.662;2023-04-01T03:43:20;3.67;;;0.68;;
24650;SDS011;12783;48.824;8.662;2023-04-01T03:45:48;4.45;;;0.70;;
24650;SDS011;12783;48.824;8.662;2023-04-01T03:48:16;2.05;;;0.65;;
24650;SDS011;12783;48.824;8.662;2023-04-01T03:50:44;3.33;;;0.75;;
24650;SDS011;12783;48.824;8.662;2023-04-01T03:53:11;3.17;;;0.65;;
24650;SDS011;12783;48.824;8.662;2023-04-01T03:55:38;3.92;;;0.82;;
24650;SDS011;12783;48.824;8.662;2023-04-01T03:58:06;4.97;;;1.05;;
24650;SDS011;12783;48.824;8.662;2023-04-01T04:00:33;2.72;;;0.77;;
24650;SDS011;12783;48.824;8.662;2023-04-01T04:03:01;5.72;;;1.10;;
24650;SDS011;12783;48.824;8.662;2023-04-01T04:05:27;2.90;;;1.00;;
24650;SDS011;12783;48.824;8.662;2023-04-01T04:07:54;5.53;;;0.88;;
24650;SDS011;12783;48.824;8.662;2023-04-01T04:10:21;6.25;;;0.98;;
24650;SDS011;12783;48.824;8.662;2023-04-01T04:12:49;5.28;;;0.93;;
24650;SDS011;12783;48.824;8.662;2023-04-01T04:15:16;2.25;;;0.80;;
24650;SDS011;12783;48.824;8.662;2023-04-01T04:17:44;3.05;;;0.75;;
24650;SDS011;12783;48.824;8.662;2023-04-01T04:20:12;5.55;;;1.02;;
24650;SDS011;12783;48.824;8.662;2023-04-01T04:22:39;1.55;;;0.70;;
24650;SDS011;12783;48.824;8.662;2023-04-01T04:25:06;3.45;;;0.80;;
24650;SDS011;12783;48.824;8.662;2023-04-01T04:27:33;2.13;;;0.65;;
24650;SDS011;12783;48.824;8.662;2023-04-01T04:30:00;3.10;;;0.70;;
24650;SDS011;12783;48.824;8.662;2023-04-01T04:32:27;3.17;;;0.55;;
24650;SDS011;12783;48.824;8.662;2023-04-01T04:34:55;3.75;;;1.08;;
24650;SDS011;12783;48.824;8.662;2023-04-01T04:37:22;2.63;;;0.60;;
24650;SDS011;12783;48.824;8.662;2023-04-01T04:39:48;1.85;;;0.60;;
24650;SDS011;12783;48.824;8.662;2023-04-01T04:42:15;4.70;;;1.00;;
24650;SDS011;12783;48.824;8.662;2023-04-01T04:44:42;6.45;;;0.90;;
24650;SDS011;12783;48.824;8.662;2023-04-01T04:47:08;3.20;;;0.98;;
24650;SDS011;12783;48.824;8.662;2023-04-01T04:49:35;4.32;;;1.10;;
24650;SDS011;12783;48.824;8.662;2023-04-01T04:52:02;6.80;;;1.77;;
24650;SDS011;12783;48.824;8.662;2023-04-01T04:54:29;3.72;;;0.77;;
24650;SDS011;12783;48.824;8.662;2023-04-01T04:56:56;0.93;;;0.50;;
24650;SDS011;12783;48.824;8.662;2023-04-01T04:59:23;3.75;;;0.90;;
24650;SDS011;12783;48.824;8.662;2023-04-01T05:01:49;2.65;;;0.75;;
24650;SDS011;12783;48.824;8.662;2023-04-01T05:04:16;3.58;;;0.80;;
24650;SDS011;12783;48.824;8.662;2023-04-01T05:06:43;3.72;;;0.75;;
24650;SDS011;12783;48.824;8.662;2023-04-01T05:09:11;4.40;;;0.70;;
24650;SDS011;12783;48.824;8.662;2023-04-01T05:11:38;3.65;;;1.10;;
24650;SDS011;12783;48.824;8.662;2023-04-01T05:14:04;6.03;;;0.70;;
24650;SDS011;12783;48.824;8.662;2023-04-01T05:16:31;2.70;;;0.65;;
24650;SDS011;12783;48.824;8.662;2023-04-01T05:18:58;3.78;;;0.55;;
24650;SDS011;12783;48.824;8.662;2023-04-01T05:21:25;2.40;;;0.77;;
24650;SDS011;12783;48.824;8.662;2023-04-01T05:23:52;2.58;;;0.60;;
24650;SDS011;12783;48.824;8.662;2023-04-01T05:26:19;1.65;;;0.65;;
24650;SDS011;12783;48.824;8.662;2023-04-01T05:28:45;1.35;;;0.45;;
24650;SDS011;12783;48.824;8.662;2023-04-01T05:31:12;3.28;;;0.93;;
24650;SDS011;12783;48.824;8.662;2023-04-01T05:33:39;0.90;;;0.40;;
24650;SDS011;12783;48.824;8.662;2023-04-01T05:36:15;3.70;;;0.80;;
24650;SDS011;12783;48.824;8.662;2023-04-01T05:38:43;2.10;;;0.68;;
24650;SDS011;12783;48.824;8.662;2023-04-01T05:41:12;5.88;;;1.00;;
24650;SDS011;12783;48.824;8.662;2023-04-01T05:43:40;2.08;;;0.80;;
24650;SDS011;12783;48.824;8.662;2023-04-01T05:46:07;2.33;;;0.40;;
24650;SDS011;12783;48.824;8.662;2023-04-01T05:48:34;2.05;;;0.50;;
24650;SDS011;12783;48.824;8.662;2023-04-01T05:51:02;6.93;;;0.80;;
24650;SDS011;12783;48.824;8.662;2023-04-01T05:53:29;0.82;;;0.40;;
24650;SDS011;12783;48.824;8.662;2023-04-01T05:55:56;2.75;;;0.70;;
24650;SDS011;12783;48.824;8.662;2023-04-01T05:58:23;5.28;;;0.55;;
24650;SDS011;12783;48.824;8.662;2023-04-01T06:00:50;3.58;;;0.93;;
24650;SDS011;12783;48.824;8.662;2023-04-01T06:03:34;3.25;;;0.47;;
24650;SDS011;12783;48.824;8.662;2023-04-01T06:06:01;5.70;;;0.80;;
24650;SDS011;12783;48.824;8.662;2023-04-01T06:08:29;3.78;;;0.50;;
24650;SDS011;12783;48.824;8.662;2023-04-01T06:13:51;2.85;;;0.50;;
24650;SDS011;12783;48.824;8.662;2023-04-01T06:16:17;2.70;;;0.60;;
24650;SDS011;12783;48.824;8.662;2023-04-01T06:26:47;1.20;;;0.45;;
24650;SDS011;12783;48.824;8.662;2023-04-01T06:29:35;0.85;;;0.40;;
24650;SDS011;12783;48.824;8.662;2023-04-01T06:40:16;1.63;;;0.50;;
24650;SDS011;12783;48.824;8.662;2023-04-01T06:43:11;2.03;;;0.50;;
24650;SDS011;12783;48.824;8.662;2023-04-01T06:45:52;0.40;;;0.40;;
24650;SDS011;12783;48.824;8.662;2023-04-01T06:54:24;2.47;;;0.43;;
24650;SDS011;12783;48.824;8.662;2023-04-01T06:57:02;0.55;;;0.25;;
24650;SDS011;12783;48.824;8.662;2023-04-01T06:59:40;1.38;;;0.32;;
24650;SDS011;12783;48.824;8.662;2023-04-01T07:04:41;2.83;;;0.40;;
24650;SDS011;12783;48.824;8.662;2023-04-01T07:07:14;0.73;;;0.40;;
24650;SDS011;12783;48.824;8.662;2023-04-01T07:10:02;0.63;;;0.30;;
24650;SDS011;12783;48.824;8.662;2023-04-01T07:15:04;3.22;;;0.43;;
24650;SDS011;12783;48.824;8.662;2023-04-01T07:17:40;1.52;;;0.43;;
24650;SDS011;12783;48.824;8.662;2023-04-01T07:20:13;0.98;;;0.28;;
24650;SDS011;12783;48.824;8.662;2023-04-01T07:22:54;3.17;;;0.40;;
24650;SDS011;12783;48.824;8.662;2023-04-01T07:25:24;1.38;;;0.40;;
24650;SDS011;12783;48.824;8.662;2023-04-01T07:28:00;0.80;;;0.22;;
24650;SDS011;12783;48.824;8.662;2023-04-01T07:33:29;1.08;;;0.40;;
24650;SDS011;12783;48.824;8.662;2023-04-01T07:36:03;0.65;;;0.40;;
24650;SDS011;12783;48.824;8.662;2023-04-01T07:44:15;0.38;;;0.20;;
24650;SDS011;12783;48.824;8.662;2023-04-01T07:47:01;1.35;;;0.30;;
24650;SDS011;12783;48.824;8.662;2023-04-01T07:54:58;0.45;;;0.40;;
24650;SDS011;12783;48.824;8.662;2023-04-01T08:14:27;0.20;;;0.20;;
24650;SDS011;12783;48.824;8.662;2023-04-01T08:17:05;2.13;;;1.15;;
24650;SDS011;12783;48.824;8.662;2023-04-01T08:22:45;0.20;;;0.20;;
24650;SDS011;12783;48.824;8.662;2023-04-01T08:25:21;1.25;;;0.35;;
24650;SDS011;12783;48.824;8.662;2023-04-01T08:27:53;0.63;;;0.30;;
24650;SDS011;12783;48.824;8.662;2023-04-01T08:30:24;2.28;;;0.38;;
24650;SDS011;12783;48.824;8.662;2023-04-01T08:33:13;1.15;;;0.35;;
24650;SDS011;12783;48.824;8.662;2023-04-01T08:36:08;0.10;;;0.10;;
24650;SDS011;12783;48.824;8.662;2023-04-01T08:38:54;0.22;;;0.20;;
24650;SDS011;12783;48.824;8.662;2023-04-01T09:00:57;0.80;;;0.30;;
24650;SDS011;12783;48.824;8.662;2023-04-01T09:08:52;0.10;;;0.10;;
24650;SDS011;12783;48.824;8.662;2023-04-01T09:17:01;0.45;;;0.32;;
24650;SDS011;12783;48.824;8.662;2023-04-01T09:22:42;0.80;;;0.28;;
24650;SDS011;12783;48.824;8.662;2023-04-01T09:33:53;0.85;;;0.43;;
24650;SDS011;12783;48.824;8.662;2023-04-01T09:36:38;1.00;;;0.45;;
24650;SDS011;12783;48.824;8.662;2023-04-01T09:44:43;0.10;;;0.10;;
24650;SDS011;12783;48.824;8.662;2023-04-01T09:53:32;0.20;;;0.20;;
24650;SDS011;12783;48.824;8.662;2023-04-01T09:56:34;0.20;;;0.20;;
24650;SDS011;12783;48.824;8.662;2023-04-01T09:59:31;0.10;;;0.10;;
24650;SDS011;12783;48.824;8.662;2023-04-01T10:04:53;0.20;;;0.20;;
24650;SDS011;12783;48.824;8.662;2023-04-01T10:10:56;4.38;;;0.32;;
24650;SDS011;12783;48.824;8.662;2023-04-01T10:24:42;0.20;;;0.20;;
24650;SDS011;12783;48.824;8.662;2023-04-01T10:42:00;0.40;;;0.40;;
24650;SDS011;12783;48.824;8.662;2023-04-01T10:50:31;0.47;;;0.20;;
24650;SDS011;12783;48.824;8.662;2023-04-01T10:59:03;0.20;;;0.20;;
24650;SDS011;12783;48.824;8.662;2023-04-01T11:08:32;1.08;;;0.40;;
24650;SDS011;12783;48.824;8.662;2023-04-01T11:17:21;0.10;;;0.10;;
24650;SDS011;12783;48.824;8.662;2023-04-01T11:34:04;0.20;;;0.20;;
24650;SDS011;12783;48.824;8.662;2023-04-01T11:36:44;2.17;;;0.20;;
24650;SDS011;12783;48.824;8.662;2023-04-01T11:44:28;0.20;;;0.20;;
24650;SDS011;12783;48.824;8.662;2023-04-01T12:03:10;0.63;;;0.63;;
24650;SDS011;12783;48.824;8.662;2023-04-01T12:11:09;0.17;;;0.17;;
24650;SDS011;12783;48.824;8.662;2023-04-01T12:24:45;0.20;;;0.20;;
24650;SDS011;12783;48.824;8.662;2023-04-01T12:29:53;0.10;;;0.10;;
24650;SDS011;12783;48.824;8.662;2023-04-01T12:32:58;0.20;;;0.20;;
24650;SDS011;12783;48.824;8.662;2023-04-01T12:44:13;0.13;;;0.13;;
24650;SDS011;12783;48.824;8.662;2023-04-01T12:50:18;0.70;;;0.70;;
24650;SDS011;12783;48.824;8.662;2023-04-01T12:56:02;0.20;;;0.20;;
24650;SDS011;12783;48.824;8.662;2023-04-01T12:58:47;0.40;;;0.40;;
24650;SDS011;12783;48.824;8.662;2023-04-01T13:01:27;0.85;;;0.40;;
24650;SDS011;12783;48.824;8.662;2023-04-01T13:12:33;0.10;;;0.10;;
24650;SDS011;12783;48.824;8.662;2023-04-01T13:21:04;0.10;;;0.10;;
24650;SDS011;12783;48.824;8.662;2023-04-01T13:29:01;0.32;;;0.22;;
24650;SDS011;12783;48.824;8.662;2023-04-01T13:32:01;0.60;;;0.22;;
24650;SDS011;12783;48.824;8.662;2023-04-01T13:40:33;0.28;;;0.28;;
24650;SDS011;12783;48.824;8.662;2023-04-01T13:52:23;0.30;;;0.30;;
24650;SDS011;12783;48.824;8.662;2023-04-01T14:14:28;0.32;;;0.30;;
24650;SDS011;12783;48.824;8.662;2023-04-01T14:17:25;0.30;;;0.30;;
24650;SDS011;12783;48.824;8.662;2023-04-01T14:28:42;0.60;;;0.50;;
24650;SDS011;12783;48.824;8.662;2023-04-01T14:34:30;0.30;;;0.30;;
24650;SDS011;12783;48.824;8.662;2023-04-01T14:48:51;0.40;;;0.40;;
24650;SDS011;12783;48.824;8.662;2023-04-01T14:54:03;0.38;;;0.38;;
24650;SDS011;12783;48.824;8.662;2023-04-01T14:56:51;0.50;;;0.20;;
24650;SDS011;12783;48.824;8.662;2023-04-01T14:59:41;0.85;;;0.40;;
24650;SDS011;12783;48.824;8.662;2023-04-01T15:16:11;0.30;;;0.30;;
24650;SDS011;12783;48.824;8.662;2023-04-01T15:19:09;0.50;;;0.30;;
24650;SDS011;12783;48.824;8.662;2023-04-01T15:22:22;1.30;;;0.50;;
24650;SDS011;12783;48.824;8.662;2023-04-01T15:28:02;0.38;;;0.38;;
24650;SDS011;12783;48.824;8.662;2023-04-01T15:33:36;1.80;;;0.57;;
24650;SDS011;12783;48.824;8.662;2023-04-01T15:36:33;1.27;;;0.40;;
24650;SDS011;12783;48.824;8.662;2023-04-01T15:50:19;2.60;;;0.50;;
24650;SDS011;12783;48.824;8.662;2023-04-01T15:53:01;1.40;;;0.50;;
24650;SDS011;12783;48.824;8.662;2023-04-01T15:55:38;0.82;;;0.40;;
24650;SDS011;12783;48.824;8.662;2023-04-01T15:58:30;1.85;;;0.65;;
24650;SDS011;12783;48.824;8.662;2023-04-01T16:01:04;1.40;;;0.47;;
24650;SDS011;12783;48.824;8.662;2023-04-01T16:03:42;3.10;;;0.77;;
24650;SDS011;12783;48.824;8.662;2023-04-01T16:06:17;4.75;;;0.75;;
24650;SDS011;12783;48.824;8.662;2023-04-01T16:09:01;2.50;;;0.82;;
24650;SDS011;12783;48.824;8.662;2023-04-01T16:11:48;0.95;;;0.40;;
24650;SDS011;12783;48.824;8.662;2023-04-01T16:22:49;1.48;;;0.60;;
24650;SDS011;12783;48.824;8.662;2023-04-01T16:37:07;1.60;;;0.70;;
24650;SDS011;12783;48.824;8.662;2023-04-01T16:42:44;0.73;;;0.50;;
24650;SDS011;12783;48.824;8.662;2023-04-01T16:48:15;5.00;;;0.75;;
24650;SDS011;12783;48.824;8.662;2023-04-01T16:58:32;3.05;;;1.42;;
24650;SDS011;12783;48.824;8.662;2023-04-01T17:01:23;2.92;;;1.42;;
24650;SDS011;12783;48.824;8.662;2023-04-01T17:03:57;2.33;;;0.70;;
24650;SDS011;12783;48.824;8.662;2023-04-01T17:06:36;2.97;;;0.77;;
24650;SDS011;12783;48.824;8.662;2023-04-01T17:09:20;2.35;;;1.00;;
24650;SDS011;12783;48.824;8.662;2023-04-01T17:11:59;1.08;;;0.88;;
24650;SDS011;12783;48.824;8.662;2023-04-01T17:14:59;1.58;;;0.60;;
24650;SDS011;12783;48.824;8.662;2023-04-01T17:23:12;2.28;;;0.60;;
24650;SDS011;12783;48.824;8.662;2023-04-01T17:26:05;0.85;;;0.30;;
24650;SDS011;12783;48.824;8.662;2023-04-01T17:34:37;2.40;;;0.47;;
24650;SDS011;12783;48.824;8.662;2023-04-01T17:43:07;2.28;;;1.08;;
24650;SDS011;12783;48.824;8.662;2023-04-01T17:48:03;5.63;;;1.30;;
24650;SDS011;12783;48.824;8.662;2023-04-01T17:50:53;8.10;;;1.60;;
24650;SDS011;12783;48.824;8.662;2023-04-01T17:53:37;6.45;;;1.20;;
24650;SDS011;12783;48.824;8.662;2023-04-01T17:59:02;4.65;;;1.52;;
24650;SDS011;12783;48.824;8.662;2023-04-01T18:01:47;3.15;;;1.00;;
24650;SDS011;12783;48.824;8.662;2023-04-01T18:04:37;5.85;;;1.25;;
24650;SDS011;12783;48.824;8.662;2023-04-01T18:07:26;2.47;;;0.77;;
24650;SDS011;12783;48.824;8.662;2023-04-01T18:26:39;2.95;;;0.65;;
24650;SDS011;12783;48.824;8.662;2023-04-01T18:31:45;1.13;;;0.68;;
24650;SDS011;12783;48.824;8.662;2023-04-01T18:34:16;1.95;;;0.90;;
24650;SDS011;12783;48.824;8.662;2023-04-01T18:37:17;3.15;;;0.70;;
24650;SDS011;12783;48.824;8.662;2023-04-01T18:39:50;2.40;;;1.10;;
24650;SDS011;12783;48.824;8.662;2023-04-01T18:50:42;3.60;;;1.00;;
24650;SDS011;12783;48.824;8.662;2023-04-01T18:53:30;2.05;;;0.95;;
24650;SDS011;12783;48.824;8.662;2023-04-01T18:56:05;2.30;;;1.40;;
24650;SDS011;12783;48.824;8.662;2023-04-01T18:58:49;2.25;;;1.30;;
24650;SDS011;12783;48.824;8.662;2023-04-01T19:07:53;6.72;;;1.48;;
24650;SDS011;12783;48.824;8.662;2023-04-01T19:15:39;3.15;;;1.30;;
24650;SDS011;12783;48.824;8.662;2023-04-01T19:18:40;7.65;;;1.63;;
24650;SDS011;12783;48.824;8.662;2023-04-01T19:26:39;2.00;;;1.15;;
24650;SDS011;12783;48.824;8.662;2023-04-01T19:29:24;3.30;;;1.15;;
24650;SDS011;12783;48.824;8.662;2023-04-01T19:32:33;3.90;;;1.05;;
24650;SDS011;12783;48.824;8.662;2023-04-01T19:38:38;1.83;;;1.00;;
24650;SDS011;12783;48.824;8.662;2023-04-01T19:41:28;2.80;;;0.90;;
24650;SDS011;12783;48.824;8.662;2023-04-01T19:50:02;2.22;;;1.10;;
24650;SDS011;12783;48.824;8.662;2023-04-01T19:52:46;2.13;;;1.15;;
24650;SDS011;12783;48.824;8.662;2023-04-01T19:55:33;4.80;;;1.10;;
24650;SDS011;12783;48.824;8.662;2023-04-01T19:58:14;2.35;;;0.98;;
24650;SDS011;12783;48.824;8.662;2023-04-01T20:03:16;2.22;;;1.42;;
24650;SDS011;12783;48.824;8.662;2023-04-01T20:08:42;3.38;;;1.25;;
24650;SDS011;12783;48.824;8.662;2023-04-01T20:11:34;3.40;;;1.38;;
24650;SDS011;12783;48.824;8.662;2023-04-01T20:14:23;2.05;;;1.02;;
24650;SDS011;12783;48.824;8.662;2023-04-01T20:17:01;4.32;;;1.25;;
24650;SDS011;12783;48.824;8.662;2023-04-01T20:19:39;6.47;;;1.20;;
24650;SDS011;12783;48.824;8.662;2023-04-01T20:22:10;1.95;;;0.95;;
24650;SDS011;12783;48.824;8.662;2023-04-01T20:24:51;3.55;;;1.00;;
24650;SDS011;12783;48.824;8.662;2023-04-01T20:27:20;3.90;;;1.00;;
24650;SDS011;12783;48.824;8.662;2023-04-01T20:30:03;2.65;;;0.70;;
24650;SDS011;12783;48.824;8.662;2023-04-01T20:32:58;2.53;;;0.77;;
24650;SDS011;12783;48.824;8.662;2023-04-01T20:35:51;1.38;;;0.60;;
24650;SDS011;12783;48.824;8.662;2023-04-01T20:41:27;3.10;;;0.43;;
24650;SDS011;12783;48.824;8.662;2023-04-01T20:44:16;3.00;;;0.40;;
24650;SDS011;12783;48.824;8.662;2023-04-01T21:05:51;2.35;;;0.80;;
24650;SDS011;12783;48.824;8.662;2023-04-01T21:14:45;0.77;;;0.70;;
24650;SDS011;12783;48.824;8.662;2023-04-01T21:17:42;0.95;;;0.70;;
24650;SDS011;12783;48.824;8.662;2023-04-01T21:26:21;0.82;;;0.80;;
24650;SDS011;12783;48.824;8.662;2023-04-01T21:28:59;2.70;;;1.00;;
24650;SDS011;12783;48.824;8.662;2023-04-01T21:31:48;1.52;;;0.80;;
24650;SDS011;12783;48.824;8.662;2023-04-01T21:45:25;2.97;;;0.90;;
24650;SDS011;12783;48.824;8.662;2023-04-01T21:56:09;3.55;;;0.70;;
24650;SDS011;12783;48.824;8.662;2023-04-01T22:02:13;1.33;;;0.73;;
24650;SDS011;12783;48.824;8.662;2023-04-01T22:05:02;2.42;;;0.98;;
24650;SDS011;12783;48.824;8.662;2023-04-01T22:15:46;1.90;;;0.50;;
24650;SDS011;12783;48.824;8.662;2023-04-01T22:21:07;3.58;;;0.80;;
24650;SDS011;12783;48.824;8.662;2023-04-01T22:23:42;1.70;;;0.70;;
24650;SDS011;12783;48.824;8.662;2023-04-01T22:26:28;3.00;;;0.75;;
24650;SDS011;12783;48.824;8.662;2023-04-01T22:29:11;2.22;;;0.70;;
24650;SDS011;12783;48.824;8.662;2023-04-01T22:39:58;1.38;;;0.50;;
24650;SDS011;12783;48.824;8.662;2023-04-01T22:45:14;1.95;;;0.63;;
24650;SDS011;12783;48.824;8.662;2023-04-01T22:50:31;6.15;;;0.70;;
24650;SDS011;12783;48.824;8.662;2023-04-01T22:53:07;2.95;;;1.02;;
24650;SDS011;12783;48.824;8.662;2023-04-01T22:55:44;4.07;;;0.77;;
24650;SDS011;12783;48.824;8.662;2023-04-01T22:58:25;2.20;;;0.70;;
24650;SDS011;12783;48.824;8.662;2023-04-01T23:01:05;1.92;;;0.60;;
24650;SDS011;12783;48.824;8.662;2023-04-01T23:03:35;1.35;;;0.60;;
24650;SDS011;12783;48.824;8.662;2023-04-01T23:06:06;1.30;;;0.70;;
24650;SDS011;12783;48.824;8.662;2023-04-01T23:11:49;0.60;;;0.45;;
24650;SDS011;12783;48.824;8.662;2023-04-01T23:25:43;2.95;;;0.60;;
24650;SDS011;12783;48.824;8.662;2023-04-01T23:28:25;2.50;;;0.50;;
24650;SDS011;12783;48.824;8.662;2023-04-01T23:34:02;1.58;;;1.00;;
24650;SDS011;12783;48.824;8.662;2023-04-01T23:36:41;0.73;;;0.50;;
24650;SDS011;12783;48.824;8.662;2023-04-01T23:39:20;1.33;;;0.63;;
24650;SDS011;12783;48.824;8.662;2023-04-01T23:41:49;1.98;;;0.80;;
24650;SDS011;12783;48.824;8.662;2023-04-01T23:44:18;5.68;;;0.75;;
24650;SDS011;12783;48.824;8.662;2023-04-01T23:46:45;1.00;;;0.65;;
24650;SDS011;12783;48.824;8.662;2023-04-01T23:49:16;1.85;;;0.60;;
24650;SDS011;12783;48.824;8.662;2023-04-01T23:51:58;3.63;;;0.68;;
24650;SDS011;12783;48.824;8.662;2023-04-01T23:56:56;3.20;;;0.75;;
24650;SDS011;12783;48.824;8.662;2023-04-01T23:59:27;4.88;;;0.60;;
